Portada
METAR-TAF:

METAR-TAF

Aeroports :

Aeroport Internacional de Phu Quoc

Phu Quoc, Vietnam

latitud: 10-10-18N, longitud: 103-59-28E, altitud: 11 m

Observació

L'informe es va fer fa 14 minuts, a les 07:30 UTC
Vent 11 kt del Oest/Sud-Oest
Temperatura 31°C
Humitat 71%
Pressió 1008 hPa
Visibilitat 10 km o més
Núvols disperses a una alçada de 1500 ft
Núvols disperses a una alçada de 4000 ft

METAR: VVPQ 220730Z 25011KT 9999 SCT015 SCT040 31/25 Q1008 NOSIG

Hora: 14:44 (07:44 UTC)

Pronòstic

L'informe es va fer fa 2 hores i 44 minuts, a les 05:00 UTC
Pronòstic vàlid del 22 a les 06 UTC al 23 a les 06 UTC
Vent 12 kt del Oest
Visibilitat 10 km o més
Núvols disperses a una alçada de 1700 ft
Temporalment
l' 22 a les 06 UTC al 22 a les 10 UTC
Núvols disperses a una alçada de 1500 ft
Escasses núvols a una alçada de 1700 ft, Cumulonimbus.
Núvols disperses a una alçada de 4000 ft
tempesta

TAF: VVPQ 220500Z 2206/2306 27012KT 9999 SCT017 TEMPO 2206/2210 TS SCT015 FEW017CB SCT040

Observacions i pronòstics meteorològics de més de 4000 aeroports (METAR i TAF).

Les estacions disponibles són els punts grocs i vermells al mapa.

Posi el ratolí al punt desitjat per veure el nom de l'estació.

Feu clic per veure les observacions i els pronòstics meteorològics.

Per canviar el mapa: feu clic els botons verds amb una creu de color negre per apropar; al botó verd amb un guió per allunyar la imatge; o en les fletxes verdes per a mapes adjacents.


METAR-TAF: